Scott City, Missouri
Current Conditions -  °F | °C
As of 4:53 PM on Thursday 27 Nov 2014 (Local Time) from KCGI Reporting Station
Clear Clear  
Wind Chill: 36°   Ceiling: Unl
Heat Index: 36°   Visibility: 10mi
Dew Point: 26°   Wind: 3mph
Humidity: 67%   Direction: 350°N
Pressure: 30.46"   Gusts: NA
Location:  37.22°N, 89.52°W
Report Text: KCGI 272253Z 35003KT 10SM CLR 02/M03 A3046 RMK AO2 SLP316 T00221033
Loading
Personal Weather Stations






























Interactive Weather Map New forecast layout! Learn more

10-Day Weather Forecast

Advertisements
Track Severe Weather on mobile